Time;durP1;ratioP1;P1;durP2;ratioP2;P2;SDS_P1;SDS_P2;PMS_P1;PMS_P2;Temp;Humidity;BMP_temperature;BMP_pressure;BME280_temperature;BME280_humidity;BME280_pressure;Samples;Min_cycle;Max_cycle;Signal;HPM_P1;HPM_P2
2022/07/14 00:00:22;;;;;;;8.37;2.90;;;;;;;21.24;82.64;100973.59;8329891;28;20292;-57
2022/07/14 00:04:22;;;;;;;9.88;3.22;;;;;;;21.15;83.04;100962.91;8320708;28;20280;-57
2022/07/14 00:08:23;;;;;;;5.63;2.40;;;;;;;21.15;83.30;100976.66;8322611;28;20103;-56
2022/07/14 00:12:23;;;;;;;6.88;3.22;;;;;;;21.02;83.96;100973.81;8335746;28;20279;-57
2022/07/14 00:16:24;;;;;;;10.13;3.42;;;;;;;21.00;84.44;100974.00;8354461;28;20124;-57
2022/07/14 00:20:26;;;;;;;11.52;4.00;;;;;;;20.99;84.60;100976.94;8354551;28;20079;-57
2022/07/14 00:24:26;;;;;;;8.23;3.42;;;;;;;20.93;85.29;100983.19;8321417;28;20040;-56
2022/07/14 00:28:26;;;;;;;8.88;3.08;;;;;;;20.88;85.63;100982.91;8352403;28;20040;-56
2022/07/14 00:32:27;;;;;;;10.05;3.08;;;;;;;20.83;86.24;100979.94;8321769;28;20037;-57
2022/07/14 00:36:27;;;;;;;8.13;3.20;;;;;;;20.75;86.77;100982.78;8322226;28;20060;-56
2022/07/14 00:40:28;;;;;;;9.40;3.05;;;;;;;20.68;87.26;100981.88;8332331;28;20764;-57
2022/07/14 00:44:28;;;;;;;7.63;3.17;;;;;;;20.62;88.08;100986.22;8349754;28;20055;-56
2022/07/14 00:48:29;;;;;;;11.13;3.47;;;;;;;20.51;88.95;100981.25;8350401;28;20496;-57
2022/07/14 00:52:29;;;;;;;7.82;2.95;;;;;;;20.48;89.40;100969.78;8342343;28;20276;-57
2022/07/14 00:56:29;;;;;;;9.18;2.95;;;;;;;20.42;90.15;100960.44;8372382;28;20040;-57
2022/07/14 01:00:30;;;;;;;10.85;3.45;;;;;;;20.43;90.56;100961.28;8376132;28;20131;-56
2022/07/14 01:04:30;;;;;;;11.20;2.97;;;;;;;20.38;90.99;100961.00;8368853;28;20487;-57
2022/07/14 01:08:31;;;;;;;14.23;3.20;;;;;;;20.37;90.95;100964.81;8362700;28;20045;-56
2022/07/14 01:12:32;;;;;;;8.70;3.08;;;;;;;20.27;91.53;100962.34;8351031;28;20287;-57
2022/07/14 01:16:32;;;;;;;13.98;3.97;;;;;;;20.15;92.54;100974.88;8334682;28;20517;-56
2022/07/14 01:20:32;;;;;;;9.82;3.33;;;;;;;20.11;92.67;100968.03;8320053;28;20037;-56
2022/07/14 01:24:34;;;;;;;11.18;3.53;;;;;;;20.07;92.80;100960.38;8327572;28;20186;-56
2022/07/14 01:28:34;;;;;;;11.02;3.67;;;;;;;20.01;93.42;100966.63;8329779;28;20044;-57
2022/07/14 01:32:35;;;;;;;11.97;3.33;;;;;;;19.94;93.82;100966.53;8320253;28;20033;-57
2022/07/14 01:36:35;;;;;;;14.23;3.40;;;;;;;19.86;94.42;100963.03;8327281;28;20458;-57
2022/07/14 01:40:36;;;;;;;13.70;3.50;;;;;;;19.84;94.87;100965.09;8323996;28;20393;-56
2022/07/14 01:44:36;;;;;;;10.50;3.42;;;;;;;19.72;95.52;100972.09;8341572;28;20489;-57
2022/07/14 01:48:37;;;;;;;11.57;3.72;;;;;;;19.61;96.01;100970.66;8349767;28;20511;-54
2022/07/14 01:52:37;;;;;;;14.13;3.80;;;;;;;19.60;96.04;100984.59;8331349;28;20086;-57
2022/07/14 01:56:40;;;;;;;18.27;4.40;;;;;;;19.56;96.12;100972.28;8320505;28;20041;-55
2022/07/14 02:00:40;;;;;;;14.43;4.05;;;;;;;19.55;96.26;100965.09;8327621;28;20033;-57
2022/07/14 02:04:41;;;;;;;14.02;3.67;;;;;;;19.51;96.39;100961.88;8318618;28;20117;-57
2022/07/14 02:08:44;;;;;;;14.20;3.93;;;;;;;19.48;96.45;100968.59;8319920;28;20033;-56
2022/07/14 02:12:45;;;;;;;13.43;3.67;;;;;;;19.52;96.24;100967.16;8319076;28;20284;-56
2022/07/14 02:16:45;;;;;;;13.98;3.35;;;;;;;19.55;96.11;100954.13;8326610;28;20075;-57
2022/07/14 02:20:47;;;;;;;17.13;4.20;;;;;;;19.48;96.46;100954.88;8319580;28;20045;-57
2022/07/14 02:24:47;;;;;;;18.27;4.10;;;;;;;19.43;96.61;100940.88;8319874;28;20042;-57
2022/07/14 02:28:47;;;;;;;15.63;3.70;;;;;;;19.35;97.15;100937.38;8342906;28;20039;-57
2022/07/14 02:32:48;;;;;;;20.58;4.22;;;;;;;19.31;97.14;100941.53;8327751;28;20286;-56
2022/07/14 02:36:49;;;;;;;14.52;4.30;;;;;;;19.28;97.56;100931.75;8318379;28;20052;-57
2022/07/14 02:40:49;;;;;;;18.52;5.05;;;;;;;19.21;97.94;100922.56;8317282;28;20044;-57
2022/07/14 02:44:49;;;;;;;14.35;4.65;;;;;;;19.36;97.50;100933.56;8318708;28;20040;-57
2022/07/14 02:48:50;;;;;;;12.77;4.07;;;;;;;19.27;98.26;100957.50;8318161;28;20091;-56
2022/07/14 02:52:50;;;;;;;22.85;4.30;;;;;;;19.15;99.33;100963.56;8318285;28;20425;-56
2022/07/14 02:56:51;;;;;;;17.60;4.53;;;;;;;19.08;100.00;100960.72;8333092;28;20046;-57
2022/07/14 03:00:51;;;;;;;15.75;4.10;;;;;;;19.01;100.00;100951.53;8325050;28;20502;-57
2022/07/14 03:04:52;;;;;;;11.13;4.10;;;;;;;18.96;100.00;100939.41;8351174;28;20670;-57
2022/07/14 03:08:52;;;;;;;14.63;4.30;;;;;;;19.09;99.70;100948.72;8349037;28;20118;-55
2022/07/14 03:12:53;;;;;;;11.27;3.72;;;;;;;19.08;100.00;100941.53;8358074;28;20497;-57
2022/07/14 03:16:53;;;;;;;17.50;3.88;;;;;;;19.05;99.78;100936.41;8337443;28;20059;-57
2022/07/14 03:20:54;;;;;;;16.25;4.47;;;;;;;19.15;99.24;100941.63;8330364;28;20033;-57
2022/07/14 03:24:54;;;;;;;13.45;4.00;;;;;;;19.13;98.85;100947.28;8324659;28;20049;-57
2022/07/14 03:28:55;;;;;;;16.30;4.28;;;;;;;19.13;100.00;100943.72;8330524;28;20203;-57
2022/07/14 03:32:56;;;;;;;11.93;4.03;;;;;;;19.04;100.00;100923.75;8330866;28;20037;-56
2022/07/14 03:36:56;;;;;;;16.58;4.93;;;;;;;19.17;98.55;100928.59;8360449;28;20045;-56
2022/07/14 03:40:57;;;;;;;18.40;4.85;;;;;;;19.09;99.09;100926.78;8349998;28;20036;-57
2022/07/14 03:44:57;;;;;;;14.48;4.30;;;;;;;18.97;100.00;100917.28;8382247;28;20033;-56
2022/07/14 03:48:58;;;;;;;19.70;4.40;;;;;;;19.12;99.58;100918.19;8375606;28;20067;-56
2022/07/14 03:52:58;;;;;;;10.02;3.78;;;;;;;19.02;99.36;100922.22;8381290;28;20044;-57
2022/07/14 03:56:58;;;;;;;17.53;5.37;;;;;;;19.02;99.75;100923.09;8381407;28;20067;-57
2022/07/14 04:00:59;;;;;;;16.85;3.90;;;;;;;18.84;100.00;100928.03;8376702;28;20290;-57
2022/07/14 04:04:59;;;;;;;20.05;4.90;;;;;;;18.74;100.00;100934.78;8365581;28;20043;-57
2022/07/14 04:09:00;;;;;;;13.75;4.47;;;;;;;18.77;100.00;100926.22;8374279;28;20049;-57
2022/07/14 04:13:01;;;;;;;16.05;4.85;;;;;;;18.73;100.00;100924.88;8381481;28;20554;-57
2022/07/14 04:17:01;;;;;;;20.98;4.97;;;;;;;18.72;100.00;100906.72;8363747;28;20408;-57
2022/07/14 04:21:02;;;;;;;16.80;4.50;;;;;;;18.73;100.00;100941.31;8376343;28;20033;-56
2022/07/14 04:25:04;;;;;;;21.80;4.78;;;;;;;18.63;100.00;100933.34;8394938;28;20760;-54
2022/07/14 04:29:05;;;;;;;14.52;4.20;;;;;;;18.59;100.00;100936.63;8378995;28;20053;-57
2022/07/14 04:33:05;;;;;;;19.33;4.60;;;;;;;18.64;100.00;100931.47;8356266;28;20044;-57
2022/07/14 04:37:06;;;;;;;18.23;4.43;;;;;;;18.67;100.00;100937.41;8329406;28;20047;-54
2022/07/14 04:41:06;;;;;;;15.45;4.93;;;;;;;18.60;100.00;100930.97;8324719;28;20137;-55
2022/07/14 04:45:08;;;;;;;17.42;4.40;;;;;;;18.64;100.00;100931.47;8321377;28;20037;-56
2022/07/14 04:53:29;;;;;;;20.63;4.75;;;;;;;18.80;100.00;100934.94;8383215;28;20208;-56
2022/07/14 04:57:29;;;;;;;23.88;4.82;;;;;;;18.83;100.00;100948.25;8380442;28;20044;-56
2022/07/14 05:01:30;;;;;;;18.83;4.40;;;;;;;18.77;99.93;100938.03;8381351;28;20404;-57
2022/07/14 05:05:30;;;;;;;22.08;4.90;;;;;;;18.82;99.89;100932.00;8379386;28;20088;-57
2022/07/14 05:09:34;;;;;;;25.58;5.97;;;;;;;18.80;100.00;100926.72;8376706;28;20568;-56
2022/07/14 05:13:34;;;;;;;16.50;4.55;;;;;;;18.75;100.00;100929.13;8374087;28;20089;-53
2022/07/14 05:17:35;;;;;;;22.10;5.72;;;;;;;18.72;100.00;100934.13;8380761;28;20518;-57
2022/07/14 05:21:36;;;;;;;21.50;5.85;;;;;;;18.73;100.00;100931.19;8374456;28;20459;-55
2022/07/14 05:25:37;;;;;;;15.52;4.43;;;;;;;18.71;100.00;100935.16;8379157;28;20044;-57
2022/07/14 05:29:37;;;;;;;14.63;5.03;;;;;;;18.74;100.00;100932.06;8375294;28;20041;-56
2022/07/14 05:33:38;;;;;;;24.25;5.65;;;;;;;18.84;100.00;100947.22;8369126;28;20502;-54
2022/07/14 05:37:38;;;;;;;25.42;5.55;;;;;;;18.89;100.00;100936.56;8373502;28;20040;-55
2022/07/14 05:41:39;;;;;;;23.67;5.83;;;;;;;18.89;100.00;100941.19;8359132;28;20049;-57
2022/07/14 05:45:39;;;;;;;20.77;5.35;;;;;;;18.70;100.00;100930.72;8364406;28;20294;-56
2022/07/14 05:49:41;;;;;;;20.83;5.68;;;;;;;18.75;100.00;100939.22;8361546;28;20409;-56
2022/07/14 05:53:44;;;;;;;28.05;6.55;;;;;;;18.77;100.00;100942.66;8355001;28;20032;-56
2022/07/14 05:57:44;;;;;;;20.13;5.88;;;;;;;18.75;100.00;100945.56;8352717;28;20151;-57
2022/07/14 06:01:45;;;;;;;24.47;6.60;;;;;;;18.71;100.00;100944.25;8362019;28;20040;-57
2022/07/14 06:05:45;;;;;;;17.73;5.68;;;;;;;18.81;100.00;100944.84;8351328;28;20332;-57
2022/07/14 06:09:47;;;;;;;28.23;6.45;;;;;;;18.79;100.00;100957.03;8361149;28;20083;-56
2022/07/14 06:13:47;;;;;;;19.42;6.10;;;;;;;18.73;100.00;100946.78;8361624;28;20037;-56
2022/07/14 06:17:47;;;;;;;23.52;6.03;;;;;;;18.71;100.00;100949.72;8357312;28;20420;-56
2022/07/14 06:21:48;;;;;;;18.27;5.70;;;;;;;18.78;100.00;100942.47;8359499;28;20124;-56
2022/07/14 06:25:48;;;;;;;25.20;6.70;;;;;;;18.81;100.00;100935.75;8356647;28;20041;-57
2022/07/14 06:29:49;;;;;;;21.05;5.75;;;;;;;18.78;100.00;100945.19;8318274;28;20289;-57
2022/07/14 06:33:50;;;;;;;28.90;6.63;;;;;;;18.84;100.00;100949.94;8356158;28;20100;-58
2022/07/14 06:37:52;;;;;;;23.77;6.60;;;;;;;18.93;100.00;100957.06;8359558;28;20086;-57
2022/07/14 06:41:53;;;;;;;22.90;7.18;;;;;;;19.15;100.00;100942.50;8366398;28;20383;-57
2022/07/14 06:45:53;;;;;;;24.50;6.30;;;;;;;19.30;100.00;100957.13;8339037;28;20033;-57
2022/07/14 06:49:54;;;;;;;23.05;6.22;;;;;;;19.39;100.00;100963.38;8356268;28;20045;-57
2022/07/14 06:53:54;;;;;;;23.60;6.23;;;;;;;19.35;100.00;100959.31;8351464;28;20079;-57
2022/07/14 06:57:55;;;;;;;22.48;7.00;;;;;;;19.51;100.00;100955.56;8361031;28;20269;-57
2022/07/14 07:01:56;;;;;;;20.85;5.35;;;;;;;19.48;99.90;100960.38;8373421;28;20036;-57
2022/07/14 07:06:57;;;;;;;23.10;7.00;;;;;;;19.52;99.89;100962.72;8376004;28;20568;-57
2022/07/14 07:10:17;;;;;;;22.95;5.80;;;;;;;19.92;97.65;100960.41;8327794;28;20049;-57
2022/07/14 07:14:18;;;;;;;17.83;5.88;;;;;;;20.12;95.21;100949.66;8338649;28;20041;-57
2022/07/14 07:18:18;;;;;;;20.35;6.35;;;;;;;19.88;95.48;100967.28;8324522;28;20041;-57
2022/07/14 07:22:19;;;;;;;22.17;6.97;;;;;;;19.78;94.92;100965.84;8324248;28;20778;-57
2022/07/14 07:26:22;;;;;;;26.83;5.60;;;;;;;19.85;95.47;100956.69;8331827;28;20516;-57
2022/07/14 07:30:23;;;;;;;19.23;5.70;;;;;;;20.05;96.06;100967.94;8329346;28;20281;-57
2022/07/14 07:34:23;;;;;;;19.25;6.05;;;;;;;20.25;93.75;100960.84;8349254;28;20040;-57
2022/07/14 07:38:24;;;;;;;19.97;5.87;;;;;;;20.29;91.93;100957.53;8323277;28;20037;-57
2022/07/14 07:42:26;;;;;;;27.60;6.10;;;;;;;20.43;91.22;100950.31;8321368;28;20353;-57
2022/07/14 07:46:26;;;;;;;22.40;5.50;;;;;;;20.39;91.33;100951.72;8321876;28;20445;-57
2022/07/14 07:50:27;;;;;;;24.83;6.93;;;;;;;20.41;90.32;100949.63;8322990;28;20115;-57
2022/07/14 07:54:29;;;;;;;22.02;5.80;;;;;;;20.48;90.87;100948.69;8318167;28;20148;-57
2022/07/14 07:58:29;;;;;;;19.83;5.53;;;;;;;20.80;90.98;100948.16;8325784;28;20044;-57
2022/07/14 08:02:30;;;;;;;17.25;6.00;;;;;;;20.84;88.26;100948.63;8337100;28;20095;-57
2022/07/14 08:06:30;;;;;;;27.50;5.93;;;;;;;20.76;88.68;100957.84;8320317;28;20056;-57
2022/07/14 08:10:30;;;;;;;17.93;5.03;;;;;;;21.13;87.52;100954.00;8322148;28;20045;-57
2022/07/14 08:15:02;;;;;;;23.50;5.50;;;;;;;21.56;85.98;100950.13;8322313;28;20283;-55
2022/07/14 08:18:52;;;;;;;21.73;4.88;;;;;;;21.81;83.36;100954.16;8320562;28;20044;-56
2022/07/14 08:22:53;;;;;;;21.13;4.95;;;;;;;22.03;81.72;100930.97;8314428;28;20049;-56
2022/07/14 08:26:53;;;;;;;16.77;4.65;;;;;;;21.85;81.48;100927.91;8310757;28;20573;-56
2022/07/14 08:30:54;;;;;;;21.55;5.20;;;;;;;22.00;79.06;100925.88;8307316;28;20479;-57
2022/07/14 08:34:54;;;;;;;12.57;3.97;;;;;;;22.33;78.12;100903.97;8312549;28;20490;-56
2022/07/14 08:38:54;;;;;;;23.48;5.50;;;;;;;22.43;76.91;100907.16;8318024;28;20399;-57
2022/07/14 08:42:56;;;;;;;17.03;3.77;;;;;;;22.52;75.28;100897.69;8318165;28;20048;-56
2022/07/14 08:46:56;;;;;;;15.55;4.63;;;;;;;23.18;71.38;100894.75;8312674;28;20844;-56
2022/07/14 08:50:58;;;;;;;17.20;4.60;;;;;;;23.54;69.35;100896.25;8316064;28;20038;-57
2022/07/14 08:54:59;;;;;;;14.18;4.13;;;;;;;23.82;68.96;100899.59;8314642;28;20110;-57
2022/07/14 08:58:59;;;;;;;18.92;4.68;;;;;;;23.72;66.99;100896.44;8313257;28;20030;-56
2022/07/14 09:03:00;;;;;;;15.85;4.13;;;;;;;23.01;70.74;100893.50;8312087;28;20029;-57
2022/07/14 09:07:00;;;;;;;15.90;3.92;;;;;;;24.16;68.18;100893.75;8313595;28;20132;-57
2022/07/14 09:11:01;;;;;;;16.17;4.63;;;;;;;24.45;66.67;100882.09;8314090;28;20094;-56
2022/07/14 09:16:04;;;;;;;13.73;3.40;;;;;;;24.09;63.05;100882.69;8333231;28;20489;-57
2022/07/14 09:19:24;;;;;;;21.90;4.40;;;;;;;24.03;64.28;100882.75;8301088;28;20041;-56
2022/07/14 09:23:35;;;;;;;12.60;3.55;;;;;;;24.43;62.84;100873.19;8302742;28;20045;-57
2022/07/14 09:27:36;;;;;;;17.55;3.60;;;;;;;24.59;62.81;100869.91;8302149;28;20112;-57
2022/07/14 09:31:36;;;;;;;17.45;3.40;;;;;;;25.20;61.51;100876.47;8301610;28;20824;-57
2022/07/14 09:35:41;;;;;;;18.15;3.65;;;;;;;25.00;59.57;100878.53;8295206;28;20393;-57
2022/07/14 09:39:58;;;;;;;13.40;3.45;;;;;;;25.01;58.96;100881.09;8302899;28;20045;-57
2022/07/14 09:44:10;;;;;;;13.70;3.70;;;;;;;24.59;61.00;100883.72;8305762;28;20052;-57
2022/07/14 09:48:12;;;;;;;13.13;3.30;;;;;;;24.83;59.87;100889.31;8301397;28;20056;-54
2022/07/14 09:52:13;;;;;;;11.73;2.63;;;;;;;24.60;60.48;100883.50;8302391;28;20098;-57
2022/07/14 09:56:14;;;;;;;13.45;3.33;;;;;;;24.74;59.21;100893.41;8306317;28;20485;-57
2022/07/14 10:00:19;;;;;;;10.80;3.20;;;;;;;24.62;58.71;100897.09;8334334;28;20044;-57
2022/07/14 10:04:21;;;;;;;10.07;3.45;;;;;;;24.85;58.29;100908.44;8328514;28;20158;-57
2022/07/14 10:08:25;;;;;;;13.77;3.85;;;;;;;25.74;56.56;100912.56;8305429;28;20040;-57
2022/07/14 10:12:26;;;;;;;18.67;3.80;;;;;;;25.93;56.90;100905.13;8300858;28;20148;-56
2022/07/14 10:16:31;;;;;;;19.95;4.05;;;;;;;26.22;55.89;100910.75;8303856;28;20111;-56
2022/07/14 10:20:32;;;;;;;10.70;2.92;;;;;;;26.15;55.93;100910.00;8303040;28;20034;-57
2022/07/14 10:24:34;;;;;;;7.43;2.30;;;;;;;25.42;52.53;100891.59;8314059;28;20041;-56
2022/07/14 10:28:35;;;;;;;6.70;2.05;;;;;;;25.48;53.82;100896.25;8320645;28;20025;-57
2022/07/14 10:32:46;;;;;;;10.02;2.55;;;;;;;25.76;52.55;100890.19;8325987;28;20048;-57
2022/07/14 10:36:58;;;;;;;8.98;2.75;;;;;;;26.59;49.27;100890.19;8315594;28;20029;-57
2022/07/14 10:41:24;;;;;;;7.35;2.00;;;;;;;27.55;45.81;100876.88;8314681;28;20029;-57
2022/07/14 10:45:26;;;;;;;7.30;1.35;;;;;;;28.44;42.38;100873.53;8301841;28;20048;-57
2022/07/14 10:49:26;;;;;;;7.47;1.88;;;;;;;27.94;41.91;100873.38;8292509;28;20487;-56
2022/07/14 10:53:29;;;;;;;6.93;1.63;;;;;;;28.79;40.50;100879.84;8283954;28;20046;-56
2022/07/14 10:57:29;;;;;;;4.43;1.10;;;;;;;30.10;39.23;100885.56;8300929;28;20034;-56
2022/07/14 11:01:30;;;;;;;3.58;0.98;;;;;;;30.12;38.35;100889.78;8289141;28;20053;-56
2022/07/14 11:05:30;;;;;;;5.47;1.37;;;;;;;29.29;40.58;100883.50;8302153;28;20048;-55
2022/07/14 11:09:31;;;;;;;3.07;0.80;;;;;;;29.50;40.51;100879.09;8335675;28;20283;-55
2022/07/14 11:13:31;;;;;;;10.27;1.40;;;;;;;29.79;40.70;100889.88;8326413;28;20272;-56
2022/07/14 11:22:10;;;;;;;6.68;1.83;;;;;;;31.50;39.96;100889.03;8298390;27;20834;-55
2022/07/14 11:26:34;;;;;;;3.55;1.35;;;;;;;30.73;40.01;100888.56;8323871;28;20048;-55
2022/07/14 11:30:35;;;;;;;5.47;1.33;;;;;;;32.44;40.75;100882.28;8291260;28;20062;-54
2022/07/14 11:36:23;;;;;;;7.03;1.02;;;;;;;32.02;39.32;100876.78;8283157;28;20037;-56
2022/07/14 11:43:35;;;;;;;6.05;1.10;;;;;;;31.87;38.65;100878.69;8371598;27;20386;-55
2022/07/14 11:47:36;;;;;;;9.20;1.50;;;;;;;30.77;40.02;100881.41;8349543;28;20065;-55
2022/07/14 11:51:37;;;;;;;4.55;0.98;;;;;;;30.68;39.85;100891.31;8338586;28;20033;-55
2022/07/14 11:55:38;;;;;;;4.72;1.17;;;;;;;29.26;42.14;100885.94;8346666;28;20083;-54
2022/07/14 11:59:42;;;;;;;7.80;1.65;;;;;;;28.26;44.29;100882.06;8359337;28;20044;-56
2022/07/14 12:03:43;;;;;;;4.15;1.40;;;;;;;28.94;43.92;100884.81;8350874;28;20049;-56
2022/07/14 12:07:46;;;;;;;6.93;1.40;;;;;;;27.44;45.22;100876.91;8356578;28;20094;-54
2022/07/14 12:11:50;;;;;;;6.80;1.43;;;;;;;26.68;47.82;100877.69;8346316;28;20140;-56
2022/07/14 12:15:50;;;;;;;10.02;1.73;;;;;;;26.36;48.15;100879.00;8348737;28;20045;-56
2022/07/14 12:19:51;;;;;;;4.87;1.07;;;;;;;26.01;48.67;100875.19;8349702;28;20133;-56
2022/07/14 12:23:53;;;;;;;4.53;1.50;;;;;;;25.74;48.59;100873.78;8353072;28;20284;-56
2022/07/14 12:27:55;;;;;;;10.95;2.03;;;;;;;25.85;49.91;100861.94;8354116;28;20283;-56
2022/07/14 12:31:57;;;;;;;6.50;1.75;;;;;;;25.95;49.07;100859.47;8347641;28;20721;-56
2022/07/14 12:36:00;;;;;;;4.13;1.48;;;;;;;26.03;47.94;100861.97;8345575;28;20321;-56
2022/07/14 12:40:01;;;;;;;7.05;1.40;;;;;;;26.56;48.74;100853.75;8342396;28;20063;-56
2022/07/14 12:44:06;;;;;;;4.85;1.80;;;;;;;26.29;48.10;100861.59;8348199;28;20095;-54
2022/07/14 12:48:11;;;;;;;6.57;2.08;;;;;;;25.95;48.87;100859.47;8343484;28;20100;-55
2022/07/14 12:52:14;;;;;;;6.32;2.00;;;;;;;25.91;48.76;100849.94;8335509;28;20037;-55
2022/07/14 12:56:18;;;;;;;7.05;2.03;;;;;;;25.90;49.51;100848.25;8322004;28;20069;-55
2022/07/14 13:00:18;;;;;;;5.25;1.92;;;;;;;25.73;49.79;100852.72;8326439;28;20124;-56
2022/07/14 13:08:51;;;;;;;5.28;1.95;;;;;;;25.83;49.65;100847.47;8300520;27;21039;-56
2022/07/14 13:12:55;;;;;;;2.85;1.67;;;;;;;25.96;49.58;100855.63;8267428;28;20487;-56
2022/07/14 13:16:55;;;;;;;4.60;1.70;;;;;;;25.83;49.27;100858.53;8264257;28;20046;-56
2022/07/14 13:20:56;;;;;;;10.02;2.53;;;;;;;25.84;50.17;100857.50;8264803;28;20103;-56
2022/07/14 13:24:56;;;;;;;10.20;1.95;;;;;;;25.92;49.67;100859.94;8263879;28;20097;-55
2022/07/14 13:28:57;;;;;;;9.48;2.10;;;;;;;26.05;49.04;100848.72;8257524;28;20039;-56
2022/07/14 13:32:57;;;;;;;14.18;2.65;;;;;;;25.93;49.95;100855.25;8262906;28;20042;-56
2022/07/14 13:36:59;;;;;;;16.85;1.83;;;;;;;25.86;50.12;100860.03;8263239;28;20046;-55
2022/07/14 13:40:59;;;;;;;6.75;1.50;;;;;;;25.52;50.22;100858.69;8265149;28;20471;-56
2022/07/14 13:44:59;;;;;;;7.93;1.80;;;;;;;25.37;50.29;100863.75;8263103;28;20487;-56
2022/07/14 13:49:00;;;;;;;8.40;1.67;;;;;;;25.30;50.67;100870.38;8266880;28;20672;-56
2022/07/14 13:53:00;;;;;;;7.38;1.50;;;;;;;25.24;50.89;100866.63;8292134;28;20284;-56
2022/07/14 13:57:01;;;;;;;5.57;1.75;;;;;;;25.26;50.80;100870.03;8292726;28;20033;-56
2022/07/14 14:01:02;;;;;;;3.42;1.52;;;;;;;25.43;50.81;100862.84;8305586;28;20435;-56
2022/07/14 14:05:03;;;;;;;3.97;1.33;;;;;;;25.42;50.33;100863.91;8316406;28;20136;-56
2022/07/14 14:09:04;;;;;;;5.85;1.52;;;;;;;25.41;50.11;100870.53;8296507;28;20076;-57
2022/07/14 14:13:05;;;;;;;7.07;1.70;;;;;;;25.15;50.45;100861.63;8315537;28;20045;-55
2022/07/14 14:17:05;;;;;;;3.78;1.42;;;;;;;25.38;50.96;100862.69;8291261;28;20045;-57
2022/07/14 14:21:07;;;;;;;6.90;1.83;;;;;;;25.30;50.49;100871.25;8275746;28;20444;-56
2022/07/14 14:25:08;;;;;;;5.78;1.42;;;;;;;25.05;50.18;100873.19;8282516;28;20324;-57
2022/07/14 14:29:08;;;;;;;5.63;1.90;;;;;;;25.02;51.11;100880.03;8283243;28;20058;-56
2022/07/14 14:33:09;;;;;;;3.30;1.30;;;;;;;24.92;50.52;100884.38;8277291;28;20052;-56
2022/07/14 14:37:09;;;;;;;7.07;1.70;;;;;;;24.87;50.78;100884.19;8271562;28;20034;-57
2022/07/14 14:41:10;;;;;;;7.43;1.95;;;;;;;24.95;50.94;100883.91;8266155;28;20046;-56
2022/07/14 14:45:11;;;;;;;7.20;1.45;;;;;;;25.10;50.34;100886.34;8278798;28;20038;-57
2022/07/14 14:49:11;;;;;;;9.10;1.73;;;;;;;25.48;50.23;100890.69;8281061;28;20168;-57
2022/07/14 14:53:12;;;;;;;5.70;1.02;;;;;;;25.94;49.02;100885.50;8266260;28;20046;-56
2022/07/14 14:57:13;;;;;;;12.13;1.65;;;;;;;25.80;49.26;100883.94;8267896;28;20049;-57
2022/07/14 15:01:13;;;;;;;5.40;1.50;;;;;;;25.52;49.58;100894.69;8276039;28;20054;-56
2022/07/14 15:05:14;;;;;;;5.38;1.17;;;;;;;25.36;50.06;100898.06;8270024;28;20115;-55
2022/07/14 15:09:14;;;;;;;3.50;1.25;;;;;;;25.27;50.12;100898.53;8299719;28;20443;-56
2022/07/14 15:13:14;;;;;;;8.80;2.00;;;;;;;24.96;50.72;100896.66;8279403;28;20065;-56
2022/07/14 15:17:15;;;;;;;5.00;1.53;;;;;;;24.92;51.90;100893.50;8275915;28;20198;-56
2022/07/14 15:21:16;;;;;;;13.57;2.22;;;;;;;25.03;51.78;100891.94;8270119;28;20284;-56
2022/07/14 15:25:16;;;;;;;4.35;1.23;;;;;;;25.21;50.86;100889.22;8271538;28;20133;-56
2022/07/14 15:29:20;;;;;;;4.90;1.52;;;;;;;25.34;50.42;100883.59;8265903;28;20049;-56
2022/07/14 15:33:20;;;;;;;4.57;1.30;;;;;;;25.55;50.99;100879.56;8272500;28;20391;-56
2022/07/14 15:37:21;;;;;;;10.52;1.63;;;;;;;25.42;51.11;100891.59;8275636;28;20057;-56
2022/07/14 15:41:21;;;;;;;7.78;1.60;;;;;;;25.70;49.77;100880.00;8271237;28;20581;-56
2022/07/14 15:45:23;;;;;;;5.18;1.45;;;;;;;25.78;50.08;100893.56;8269897;28;20582;-56
2022/07/14 15:49:23;;;;;;;8.68;1.42;;;;;;;25.66;49.42;100881.56;8277334;28;20098;-55
2022/07/14 15:53:23;;;;;;;6.90;1.30;;;;;;;25.89;49.26;100877.00;8268995;28;20084;-56
2022/07/14 15:57:24;;;;;;;4.53;1.33;;;;;;;26.25;50.47;100877.03;8271699;28;20743;-55
2022/07/14 16:01:25;;;;;;;10.73;1.70;;;;;;;26.48;49.57;100871.59;8271211;28;20273;-56
2022/07/14 16:05:26;;;;;;;3.85;1.35;;;;;;;26.19;48.60;100877.09;8271780;28;20345;-56
2022/07/14 16:09:27;;;;;;;4.50;1.27;;;;;;;25.74;49.92;100871.00;8271117;28;20278;-56
2022/07/14 16:13:27;;;;;;;7.30;1.60;;;;;;;25.41;50.25;100862.25;8271854;28;20529;-53
2022/07/14 16:17:28;;;;;;;4.30;2.03;;;;;;;25.52;49.70;100861.47;8275786;28;20046;-56
2022/07/14 16:21:28;;;;;;;4.38;1.40;;;;;;;25.55;49.75;100866.53;8277665;28;20046;-56
2022/07/14 16:25:28;;;;;;;4.07;1.52;;;;;;;25.39;50.17;100853.31;8272710;28;20050;-56
2022/07/14 16:29:30;;;;;;;5.83;2.07;;;;;;;25.35;50.38;100852.06;8269787;28;20141;-55
2022/07/14 16:33:31;;;;;;;3.55;1.27;;;;;;;25.33;51.41;100859.75;8287263;28;20280;-55
2022/07/14 16:37:31;;;;;;;5.32;1.20;;;;;;;25.24;51.77;100866.63;8258505;28;20117;-56
2022/07/14 16:41:33;;;;;;;6.93;1.50;;;;;;;25.36;52.41;100858.44;8274628;28;20046;-56
2022/07/14 16:45:33;;;;;;;4.65;1.48;;;;;;;25.27;51.77;100866.16;8269735;28;20045;-56
2022/07/14 16:49:34;;;;;;;7.10;1.23;;;;;;;25.08;51.44;100858.91;8267130;28;20117;-56
2022/07/14 16:53:34;;;;;;;3.75;1.65;;;;;;;24.96;52.00;100846.88;8270923;28;20044;-56
2022/07/14 16:57:35;;;;;;;6.07;1.47;;;;;;;24.97;51.80;100854.09;8265834;28;20469;-56
2022/07/14 17:01:37;;;;;;;5.25;1.63;;;;;;;24.88;52.19;100855.44;8273457;28;20042;-55
2022/07/14 17:06:41;;;;;;;7.40;1.60;;;;;;;24.78;51.69;100844.03;8252199;28;20366;-56
2022/07/14 17:09:58;;;;;;;5.18;1.50;;;;;;;24.73;51.68;100853.00;8234721;28;20027;-56
2022/07/14 17:14:01;;;;;;;6.87;2.00;;;;;;;24.89;51.53;100852.44;8237148;28;20037;-57
2022/07/14 17:18:01;;;;;;;6.88;1.63;;;;;;;24.88;51.16;100849.91;8235636;28;20650;-57
2022/07/14 17:22:01;;;;;;;3.80;1.40;;;;;;;24.67;51.37;100853.06;8234253;28;20025;-57
2022/07/14 17:26:02;;;;;;;4.03;1.60;;;;;;;24.46;51.32;100850.63;8235679;28;20270;-57
2022/07/14 17:30:04;;;;;;;4.80;1.52;;;;;;;24.46;51.49;100847.88;8235659;28;20274;-57
2022/07/14 17:34:04;;;;;;;6.63;1.70;;;;;;;24.32;52.15;100858.16;8235282;28;20503;-56
2022/07/14 17:38:05;;;;;;;6.10;1.67;;;;;;;24.28;51.68;100853.28;8237839;28;20407;-57
2022/07/14 17:42:05;;;;;;;6.60;1.38;;;;;;;24.27;51.30;100857.97;8235541;28;20070;-57
2022/07/14 17:46:07;;;;;;;7.93;1.70;;;;;;;24.33;51.58;100856.22;8268048;28;20190;-57
2022/07/14 17:50:09;;;;;;;8.05;1.83;;;;;;;24.29;52.18;100864.13;8270715;28;20280;-56
2022/07/14 17:54:09;;;;;;;4.53;1.50;;;;;;;24.24;52.71;100863.09;8274743;28;21368;-57
2022/07/14 17:58:11;;;;;;;5.03;1.60;;;;;;;24.25;52.10;100864.78;8279629;28;20514;-57
2022/07/14 18:02:12;;;;;;;5.55;1.52;;;;;;;24.21;52.25;100869.06;8274490;28;20276;-57
2022/07/14 18:06:12;;;;;;;3.20;1.45;;;;;;;24.18;53.34;100886.09;8275056;28;20052;-55
2022/07/14 18:10:13;;;;;;;4.97;1.50;;;;;;;24.13;53.08;100880.38;8275881;28;20046;-57
2022/07/14 18:14:14;;;;;;;4.18;1.45;;;;;;;24.11;54.26;100874.19;8276405;28;20091;-57
2022/07/14 18:18:15;;;;;;;5.95;1.75;;;;;;;23.97;53.97;100870.66;8275516;28;20046;-57
2022/07/14 18:22:16;;;;;;;5.15;1.27;;;;;;;23.94;53.85;100884.03;8277859;28;20053;-57
2022/07/14 18:26:16;;;;;;;6.80;1.10;;;;;;;23.83;53.56;100884.69;8274583;28;20466;-57
2022/07/14 18:30:16;;;;;;;4.50;1.30;;;;;;;23.78;53.92;100884.53;8273789;28;20556;-57
2022/07/14 18:34:18;;;;;;;5.20;1.60;;;;;;;23.73;53.90;100887.06;8272881;28;20277;-57
2022/07/14 18:38:18;;;;;;;4.45;1.42;;;;;;;23.58;53.77;100897.50;8273520;28;20422;-57
2022/07/14 18:42:19;;;;;;;6.30;1.67;;;;;;;23.45;54.26;100897.53;8277791;28;20067;-57
2022/07/14 18:46:20;;;;;;;5.18;1.40;;;;;;;23.35;54.43;100899.88;8278135;28;20046;-57
2022/07/14 18:50:21;;;;;;;4.63;1.33;;;;;;;23.28;55.18;100899.03;8276120;28;20053;-57